Time;durP1;ratioP1;P1;durP2;ratioP2;P2;SDS_P1;SDS_P2;PMS_P1;PMS_P2;Temp;Humidity;BMP_temperature;BMP_pressure;BME280_temperature;BME280_humidity;BME280_pressure;Samples;Min_cycle;Max_cycle;Signal;HPM_P1;HPM_P2
2023/06/15 00:00:14;;;;;;;7.30;5.20;;;;;;;9.30;72.60;97231.71;108812;1251;102147;-72
2023/06/15 00:03:01;;;;;;;6.50;5.50;;;;;;;9.28;72.66;97232.19;108902;1250;102878;-73
2023/06/15 00:05:28;;;;;;;8.90;6.00;;;;;;;9.22;72.35;97227.61;108858;1250;94469;-71
2023/06/15 00:07:55;;;;;;;8.20;5.30;;;;;;;9.15;72.65;97223.52;108809;1250;94141;-72
2023/06/15 00:10:21;;;;;;;7.10;5.80;;;;;;;9.13;72.84;97219.75;108894;1250;94284;-71
2023/06/15 00:12:48;;;;;;;8.70;5.00;;;;;;;9.13;72.93;97221.66;108987;1250;94241;-70
2023/06/15 00:15:15;;;;;;;8.80;5.20;;;;;;;9.05;72.77;97218.25;108798;1250;100085;-73
2023/06/15 00:17:43;;;;;;;8.00;5.60;;;;;;;8.95;72.90;97217.58;108819;1250;94307;-72
2023/06/15 00:20:12;;;;;;;9.70;6.00;;;;;;;8.90;73.02;97219.58;108866;1250;94462;-71
2023/06/15 00:22:41;;;;;;;7.90;5.90;;;;;;;8.90;73.36;97223.13;108543;1250;110977;-73
2023/06/15 00:25:08;;;;;;;9.70;5.90;;;;;;;8.90;73.37;97227.48;108336;1253;101425;-72
2023/06/15 00:27:35;;;;;;;9.10;6.50;;;;;;;8.86;73.47;97234.05;108824;1250;94355;-73
2023/06/15 00:30:03;;;;;;;9.60;6.20;;;;;;;8.87;73.56;97230.53;108837;1250;95296;-72
2023/06/15 00:32:30;;;;;;;10.40;5.80;;;;;;;8.86;73.62;97224.69;108699;1251;94705;-71
2023/06/15 00:34:57;;;;;;;8.30;5.90;;;;;;;8.88;73.73;97226.77;108813;1250;94344;-72
2023/06/15 00:37:24;;;;;;;8.00;6.00;;;;;;;8.89;73.57;97230.87;108890;1250;94268;-71
2023/06/15 00:39:51;;;;;;;10.30;6.60;;;;;;;8.87;73.48;97230.27;108837;1250;94786;-71
2023/06/15 00:42:17;;;;;;;9.40;6.20;;;;;;;8.86;73.56;97230.23;108824;1251;94491;-71
2023/06/15 00:44:44;;;;;;;10.00;6.40;;;;;;;8.86;73.61;97228.09;108985;1250;94475;-72
2023/06/15 00:47:12;;;;;;;9.10;6.00;;;;;;;8.86;73.73;97234.84;108779;1254;101065;-71
2023/06/15 00:49:38;;;;;;;7.20;5.50;;;;;;;8.84;73.69;97230.15;108802;1250;94292;-71
2023/06/15 00:52:06;;;;;;;7.50;5.40;;;;;;;8.79;73.49;97231.56;108802;1252;94458;-72
2023/06/15 00:54:34;;;;;;;7.30;5.50;;;;;;;8.73;73.61;97229.55;108890;1250;94343;-71
2023/06/15 00:57:01;;;;;;;10.40;6.20;;;;;;;8.73;73.87;97230.29;108846;1250;94359;-72
2023/06/15 00:59:28;;;;;;;7.70;5.50;;;;;;;8.75;73.85;97229.14;108824;1250;95179;-71
2023/06/15 01:01:55;;;;;;;8.10;6.00;;;;;;;8.70;73.61;97229.01;108605;1255;94349;-73
2023/06/15 01:04:24;;;;;;;10.10;6.50;;;;;;;8.64;73.74;97229.99;108807;1251;94443;-71
2023/06/15 01:06:56;;;;;;;11.10;6.10;;;;;;;8.63;73.73;97229.23;108849;1252;94337;-73
2023/06/15 01:09:25;;;;;;;7.00;5.50;;;;;;;8.60;73.59;97224.10;108821;1251;102034;-72
2023/06/15 01:11:55;;;;;;;9.00;5.60;;;;;;;8.55;73.86;97227.99;108907;1250;101180;-72
2023/06/15 01:14:26;;;;;;;8.90;5.90;;;;;;;8.55;73.84;97223.19;108847;1250;100096;-72
2023/06/15 01:16:57;;;;;;;8.80;5.30;;;;;;;8.52;73.81;97221.31;108892;1250;94292;-72
2023/06/15 01:19:57;;;;;;;8.50;5.10;;;;;;;8.42;73.78;97215.36;108830;1250;94505;-71
2023/06/15 01:22:55;;;;;;;8.80;5.00;;;;;;;8.28;73.79;97217.52;108773;1250;102190;-71
2023/06/15 01:25:29;;;;;;;8.20;5.50;;;;;;;8.23;74.17;97224.80;108816;1252;101272;-73
2023/06/15 01:28:02;;;;;;;8.80;6.50;;;;;;;8.23;74.15;97221.21;108831;1250;99470;-72
2023/06/15 01:30:51;;;;;;;7.60;5.40;;;;;;;8.18;74.15;97221.38;108583;1251;94672;-73
2023/06/15 01:33:18;;;;;;;7.10;6.10;;;;;;;8.17;74.45;97220.75;108850;1250;95614;-72
2023/06/15 01:35:45;;;;;;;10.70;7.50;;;;;;;8.20;74.63;97218.11;108878;1250;94236;-70
2023/06/15 01:38:13;;;;;;;11.80;7.20;;;;;;;8.23;74.75;97220.17;108920;1250;94714;-71
2023/06/15 01:40:44;;;;;;;9.90;6.90;;;;;;;8.26;74.69;97221.56;108866;1250;94616;-71
2023/06/15 01:43:14;;;;;;;9.20;6.70;;;;;;;8.27;74.69;97222.93;108789;1250;94313;-73
2023/06/15 01:45:42;;;;;;;10.20;6.60;;;;;;;8.26;74.74;97223.21;108745;1252;95162;-72
2023/06/15 01:48:10;;;;;;;8.60;7.00;;;;;;;8.27;74.91;97227.66;108876;1250;102170;-73
2023/06/15 01:50:38;;;;;;;9.70;7.30;;;;;;;8.29;74.92;97229.80;108772;1252;101756;-72
2023/06/15 01:53:05;;;;;;;14.40;7.30;;;;;;;8.29;74.98;97231.77;108811;1250;99907;-73
2023/06/15 01:55:32;;;;;;;11.40;7.50;;;;;;;8.30;75.13;97233.08;108877;1250;94268;-72
2023/06/15 01:57:58;;;;;;;14.00;8.30;;;;;;;8.29;75.15;97238.70;108941;1250;94744;-73
2023/06/15 02:00:25;;;;;;;13.90;8.50;;;;;;;8.29;75.21;97239.98;108907;1250;94404;-72
2023/06/15 02:02:52;;;;;;;11.80;8.40;;;;;;;8.28;75.06;97239.20;108922;1250;94322;-72
2023/06/15 02:05:19;;;;;;;15.10;9.00;;;;;;;8.28;75.14;97235.67;108875;1250;94435;-72
2023/06/15 02:07:46;;;;;;;12.20;8.30;;;;;;;8.27;75.07;97238.41;108732;1251;94367;-73
2023/06/15 02:10:12;;;;;;;12.00;9.00;;;;;;;8.26;75.31;97236.95;108851;1250;102167;-73
2023/06/15 02:12:39;;;;;;;11.90;8.60;;;;;;;8.26;75.25;97233.73;108834;1253;94409;-73
2023/06/15 02:15:07;;;;;;;16.90;8.40;;;;;;;8.25;75.31;97232.48;108783;1251;94248;-71
2023/06/15 02:17:39;;;;;;;13.10;8.20;;;;;;;8.25;75.40;97237.14;108859;1250;94704;-72
2023/06/15 02:20:08;;;;;;;15.90;8.70;;;;;;;8.24;75.38;97241.20;108882;1250;94425;-73
2023/06/15 02:22:35;;;;;;;11.50;8.20;;;;;;;8.21;75.39;97241.73;108936;1250;102408;-71
2023/06/15 02:25:01;;;;;;;14.40;8.90;;;;;;;8.18;75.33;97241.98;108824;1250;94662;-72
2023/06/15 02:27:28;;;;;;;12.90;8.20;;;;;;;8.17;75.53;97243.86;108843;1250;94220;-74
2023/06/15 02:29:55;;;;;;;10.70;8.00;;;;;;;8.14;75.60;97247.36;108860;1250;94277;-73
2023/06/15 02:32:37;;;;;;;10.20;7.90;;;;;;;8.13;75.73;97251.74;108557;1251;94336;-73
2023/06/15 02:35:10;;;;;;;10.80;7.60;;;;;;;8.08;75.76;97250.66;108886;1250;102669;-71
2023/06/15 02:37:38;;;;;;;11.50;8.30;;;;;;;8.04;75.85;97250.88;108875;1250;111006;-72
2023/06/15 02:40:06;;;;;;;12.80;8.40;;;;;;;8.05;76.20;97248.53;108854;1250;98990;-71
2023/06/15 02:42:33;;;;;;;13.20;9.00;;;;;;;8.07;76.46;97255.32;108720;1251;94254;-72
2023/06/15 02:45:01;;;;;;;11.00;8.50;;;;;;;8.09;76.52;97259.24;108867;1250;94307;-72
2023/06/15 02:47:27;;;;;;;9.90;8.20;;;;;;;8.14;76.53;97257.29;108835;1253;94235;-71
2023/06/15 02:49:54;;;;;;;11.20;7.90;;;;;;;8.16;76.42;97252.96;108821;1251;94341;-71
2023/06/15 02:52:22;;;;;;;13.30;8.20;;;;;;;8.18;76.59;97255.63;108798;1251;94645;-72
2023/06/15 02:54:49;;;;;;;11.60;8.10;;;;;;;8.21;76.65;97256.77;108813;1252;94569;-72
2023/06/15 02:57:15;;;;;;;11.40;7.80;;;;;;;8.24;76.66;97254.94;108936;1250;95021;-72
2023/06/15 02:59:42;;;;;;;10.30;7.80;;;;;;;8.28;76.74;97260.63;108921;1250;94709;-73
2023/06/15 03:02:08;;;;;;;10.40;7.60;;;;;;;8.31;76.59;97262.42;108794;1251;99341;-72
2023/06/15 03:04:44;;;;;;;11.70;7.70;;;;;;;8.34;76.50;97259.48;108789;1252;95860;-71
2023/06/15 03:07:13;;;;;;;9.50;7.50;;;;;;;8.34;76.46;97261.99;108781;1253;94259;-71
2023/06/15 03:09:40;;;;;;;10.70;7.50;;;;;;;8.34;76.33;97261.45;108864;1251;102041;-71
2023/06/15 03:12:07;;;;;;;18.00;8.10;;;;;;;8.37;76.66;97260.73;108841;1252;101210;-72
2023/06/15 03:14:35;;;;;;;11.60;7.90;;;;;;;8.39;76.69;97258.02;108848;1250;99491;-72
2023/06/15 03:17:02;;;;;;;14.30;8.40;;;;;;;8.39;76.78;97257.06;108807;1251;94282;-71
2023/06/15 03:19:29;;;;;;;14.40;7.60;;;;;;;8.42;76.88;97259.19;108831;1252;94324;-71
2023/06/15 03:21:57;;;;;;;9.60;7.70;;;;;;;8.45;76.97;97261.63;108804;1253;95360;-71
2023/06/15 03:24:25;;;;;;;9.60;7.80;;;;;;;8.46;76.97;97267.10;108810;1251;94511;-73
2023/06/15 03:26:56;;;;;;;11.00;7.90;;;;;;;8.47;77.00;97268.84;108445;1251;100585;-71
2023/06/15 03:29:26;;;;;;;10.50;7.90;;;;;;;8.52;76.98;97273.13;108818;1252;94256;-71
2023/06/15 03:31:53;;;;;;;9.80;7.20;;;;;;;8.56;77.00;97277.95;108832;1251;94728;-73
2023/06/15 03:34:20;;;;;;;10.30;7.80;;;;;;;8.59;77.07;97277.20;108900;1250;94266;-72
2023/06/15 03:36:47;;;;;;;8.60;7.10;;;;;;;8.62;77.12;97277.02;108635;1251;94490;-73
2023/06/15 03:39:14;;;;;;;8.10;7.10;;;;;;;8.67;77.23;97273.74;108765;1252;94324;-72
2023/06/15 03:41:40;;;;;;;12.00;7.80;;;;;;;8.73;77.18;97273.92;108803;1251;94241;-72
2023/06/15 03:44:07;;;;;;;9.50;7.30;;;;;;;8.76;77.11;97276.85;108856;1252;94677;-71
2023/06/15 03:46:34;;;;;;;11.40;7.10;;;;;;;8.81;77.15;97278.17;108679;1251;101339;-73
2023/06/15 03:49:00;;;;;;;12.40;7.10;;;;;;;8.84;77.23;97274.91;108822;1251;94272;-73
2023/06/15 03:51:27;;;;;;;9.30;6.90;;;;;;;8.87;77.14;97273.27;108648;1251;94606;-71
2023/06/15 03:53:55;;;;;;;9.80;7.40;;;;;;;8.90;77.21;97275.84;108797;1252;94407;-73
2023/06/15 03:56:21;;;;;;;10.40;7.60;;;;;;;8.93;77.29;97277.80;108850;1250;94658;-71
2023/06/15 03:58:48;;;;;;;9.40;7.20;;;;;;;8.97;77.25;97277.21;108647;1250;307041;-71
2023/06/15 04:01:15;;;;;;;11.40;7.40;;;;;;;9.01;77.21;97271.48;108629;1251;94212;-71
2023/06/15 04:03:42;;;;;;;10.00;7.70;;;;;;;9.06;77.19;97269.27;108895;1250;94608;-73
2023/06/15 04:06:08;;;;;;;10.90;7.20;;;;;;;9.11;77.22;97270.98;108814;1252;94275;-70
2023/06/15 04:08:35;;;;;;;9.30;7.10;;;;;;;9.16;77.33;97267.56;108871;1250;94707;-72
2023/06/15 04:11:02;;;;;;;9.80;7.30;;;;;;;9.23;77.34;97268.64;108793;1250;94211;-73
2023/06/15 04:13:29;;;;;;;10.70;7.30;;;;;;;9.27;77.28;97270.07;108911;1251;94608;-72
2023/06/15 04:15:56;;;;;;;11.40;7.90;;;;;;;9.28;77.30;97272.77;108887;1250;102286;-70
2023/06/15 04:18:24;;;;;;;8.60;7.00;;;;;;;9.31;77.41;97271.30;108901;1250;94818;-71
2023/06/15 04:20:52;;;;;;;10.10;7.10;;;;;;;9.35;77.46;97266.16;108794;1252;100115;-71
2023/06/15 04:23:19;;;;;;;9.70;6.70;;;;;;;9.42;77.53;97261.10;108819;1250;96046;-71
2023/06/15 04:25:45;;;;;;;12.40;8.00;;;;;;;9.50;77.74;97260.90;108803;1250;94339;-71
2023/06/15 04:28:12;;;;;;;13.10;7.90;;;;;;;9.57;77.73;97256.79;108882;1251;94544;-72
2023/06/15 04:30:40;;;;;;;9.20;8.20;;;;;;;9.63;77.78;97257.27;108709;1252;94351;-73
2023/06/15 04:33:12;;;;;;;13.30;8.20;;;;;;;9.70;77.76;97261.25;108641;1251;94759;-71
2023/06/15 04:35:45;;;;;;;11.10;8.20;;;;;;;9.74;77.66;97266.02;108393;1259;94675;-73
2023/06/15 04:38:13;;;;;;;9.60;7.60;;;;;;;9.80;77.79;97266.75;108668;1252;94397;-72
2023/06/15 04:40:41;;;;;;;10.30;7.10;;;;;;;9.86;77.78;97268.23;108895;1250;102161;-73
2023/06/15 04:43:09;;;;;;;10.70;7.00;;;;;;;9.94;77.68;97267.52;108839;1251;101267;-71
2023/06/15 04:45:36;;;;;;;8.20;7.20;;;;;;;10.01;77.44;97265.10;108848;1250;99982;-73
2023/06/15 04:48:03;;;;;;;11.10;7.80;;;;;;;10.06;77.45;97266.15;108826;1250;95357;-73
2023/06/15 04:50:30;;;;;;;9.80;7.70;;;;;;;10.11;77.58;97268.40;108878;1250;94330;-71
2023/06/15 04:52:57;;;;;;;9.40;6.70;;;;;;;10.16;77.52;97268.05;108813;1251;94601;-72
2023/06/15 04:55:24;;;;;;;11.70;7.70;;;;;;;10.21;77.64;97270.55;108834;1252;95022;-71
2023/06/15 04:57:51;;;;;;;10.00;7.20;;;;;;;10.30;77.52;97265.80;108830;1253;94205;-71
2023/06/15 05:00:18;;;;;;;9.90;7.60;;;;;;;10.36;77.41;97268.77;108923;1250;94421;-71
2023/06/15 05:02:45;;;;;;;7.00;6.20;;;;;;;10.43;77.29;97270.73;108627;1251;101238;-72
2023/06/15 05:05:12;;;;;;;7.90;7.00;;;;;;;10.46;77.34;97271.02;108897;1251;94332;-71
2023/06/15 05:07:39;;;;;;;9.50;7.10;;;;;;;10.48;77.41;97270.59;108853;1250;94361;-72
2023/06/15 05:10:07;;;;;;;9.10;7.20;;;;;;;10.51;77.58;97273.21;108845;1251;96207;-72
2023/06/15 05:12:34;;;;;;;8.50;6.20;;;;;;;10.56;77.53;97276.52;108828;1250;94292;-72
2023/06/15 05:15:00;;;;;;;9.00;7.40;;;;;;;10.62;77.57;97274.95;108861;1250;94435;-71
2023/06/15 05:17:27;;;;;;;8.40;6.90;;;;;;;10.70;77.47;97277.09;108574;1251;95329;-72
2023/06/15 05:19:54;;;;;;;8.90;6.60;;;;;;;10.77;77.43;97274.52;108800;1252;94687;-72
2023/06/15 05:22:21;;;;;;;8.40;6.80;;;;;;;10.84;77.26;97273.23;108811;1251;94700;-73
2023/06/15 05:24:47;;;;;;;8.40;7.10;;;;;;;10.89;77.08;97276.57;108809;1250;94319;-73
2023/06/15 05:27:14;;;;;;;10.20;7.50;;;;;;;10.94;77.16;97274.75;108857;1251;94304;-73
2023/06/15 05:29:41;;;;;;;9.90;8.00;;;;;;;11.00;77.21;97276.30;108825;1251;94243;-73
2023/06/15 05:32:08;;;;;;;9.20;7.50;;;;;;;11.06;77.31;97275.36;108944;1251;94285;-71
2023/06/15 05:34:35;;;;;;;12.90;9.00;;;;;;;11.14;77.22;97281.90;108666;1251;102308;-72
2023/06/15 05:37:02;;;;;;;12.20;8.30;;;;;;;11.20;77.09;97282.70;108800;1252;94300;-73
2023/06/15 05:39:29;;;;;;;9.40;7.90;;;;;;;11.25;77.01;97285.98;108850;1250;94278;-73
2023/06/15 05:41:56;;;;;;;11.40;7.80;;;;;;;11.31;77.00;97287.24;108821;1252;94599;-72
2023/06/15 05:44:23;;;;;;;8.70;7.50;;;;;;;11.37;77.00;97282.28;108836;1252;94273;-72
2023/06/15 05:46:50;;;;;;;11.00;7.80;;;;;;;11.38;77.05;97283.39;108886;1250;94291;-72
2023/06/15 05:49:17;;;;;;;8.90;7.90;;;;;;;11.40;77.32;97281.75;108820;1251;100262;-73
2023/06/15 05:51:44;;;;;;;10.30;8.60;;;;;;;11.46;77.37;97283.58;108782;1252;94258;-72
2023/06/15 05:54:11;;;;;;;13.10;9.00;;;;;;;11.53;77.39;97282.58;108821;1252;94255;-71
2023/06/15 05:56:38;;;;;;;11.10;8.50;;;;;;;11.61;77.32;97280.20;108809;1253;94661;-72
2023/06/15 05:59:04;;;;;;;12.70;8.30;;;;;;;11.69;77.25;97278.77;108844;1254;94368;-71
2023/06/15 06:01:31;;;;;;;16.80;9.50;;;;;;;11.79;77.37;97280.52;108805;1251;94249;-72
2023/06/15 06:03:58;;;;;;;12.00;8.80;;;;;;;11.89;77.46;97283.34;108877;1250;94257;-71
2023/06/15 06:06:25;;;;;;;10.50;8.90;;;;;;;12.00;77.43;97281.45;108808;1250;94212;-71
2023/06/15 06:08:51;;;;;;;13.20;9.40;;;;;;;12.10;77.42;97282.83;108816;1252;94257;-73
2023/06/15 06:11:18;;;;;;;12.00;9.00;;;;;;;12.19;77.22;97285.39;108515;1253;94318;-74
2023/06/15 06:13:45;;;;;;;12.60;9.80;;;;;;;12.28;77.08;97289.56;108731;1257;94400;-72
2023/06/15 06:16:12;;;;;;;10.70;9.10;;;;;;;12.34;77.19;97289.41;108870;1254;102085;-72
2023/06/15 06:18:39;;;;;;;13.20;8.60;;;;;;;12.40;77.19;97292.09;108866;1250;94296;-71
2023/06/15 06:21:05;;;;;;;12.50;9.60;;;;;;;12.48;77.07;97295.41;108795;1251;94231;-72
2023/06/15 06:23:32;;;;;;;11.80;9.60;;;;;;;12.56;76.87;97292.77;108864;1253;94289;-72
2023/06/15 06:25:59;;;;;;;12.90;10.10;;;;;;;12.64;76.53;97291.27;108860;1250;94348;-71
2023/06/15 06:28:26;;;;;;;13.90;10.30;;;;;;;12.71;76.27;97293.21;108850;1252;94628;-72
2023/06/15 06:30:53;;;;;;;13.50;10.70;;;;;;;12.78;76.23;97293.89;108552;1251;100244;-73
2023/06/15 06:33:20;;;;;;;12.90;10.30;;;;;;;12.85;75.97;97296.23;108839;1251;94220;-72
2023/06/15 06:35:47;;;;;;;13.00;10.30;;;;;;;12.90;75.64;97297.31;108841;1251;94750;-71
2023/06/15 06:38:13;;;;;;;11.00;9.40;;;;;;;12.93;75.80;97299.84;108890;1252;94438;-71
2023/06/15 06:40:40;;;;;;;13.00;9.10;;;;;;;13.00;75.69;97300.84;108842;1253;94428;-72
2023/06/15 06:43:07;;;;;;;13.30;9.20;;;;;;;13.07;75.31;97303.79;108530;1254;94627;-70
2023/06/15 06:45:34;;;;;;;11.90;9.70;;;;;;;13.13;75.14;97305.51;108876;1252;94249;-70
2023/06/15 06:48:01;;;;;;;12.80;9.30;;;;;;;13.20;75.06;97309.02;108912;1251;94240;-71
2023/06/15 06:50:28;;;;;;;12.40;10.00;;;;;;;13.26;75.03;97308.96;108830;1253;94317;-70
2023/06/15 06:52:55;;;;;;;11.60;10.40;;;;;;;13.31;74.83;97309.73;108818;1251;94272;-71
2023/06/15 06:55:22;;;;;;;15.20;10.50;;;;;;;13.38;74.76;97310.08;108813;1250;94271;-71
2023/06/15 06:57:49;;;;;;;12.70;10.10;;;;;;;13.44;74.71;97308.48;108895;1250;94322;-70
2023/06/15 07:00:16;;;;;;;13.50;10.40;;;;;;;13.51;74.64;97304.88;108582;1251;100443;-72
2023/06/15 07:02:43;;;;;;;13.30;10.10;;;;;;;13.60;74.63;97305.28;108843;1251;94265;-72
2023/06/15 07:05:09;;;;;;;14.30;10.50;;;;;;;13.68;74.30;97296.73;108580;1251;94227;-72
2023/06/15 07:07:36;;;;;;;14.70;10.70;;;;;;;13.75;74.33;97298.08;108661;1251;94889;-72
2023/06/15 07:10:03;;;;;;;16.20;11.30;;;;;;;13.82;74.38;97299.04;108858;1251;94432;-72
2023/06/15 07:12:30;;;;;;;13.60;10.60;;;;;;;13.92;74.35;97297.16;108879;1250;94298;-71
2023/06/15 07:14:57;;;;;;;11.80;10.20;;;;;;;14.03;74.32;97293.95;108559;1251;94372;-72
2023/06/15 07:17:23;;;;;;;12.30;10.20;;;;;;;14.14;73.92;97290.73;108837;1251;94643;-71
2023/06/15 07:19:50;;;;;;;15.50;11.30;;;;;;;14.23;73.42;97294.85;108860;1250;94269;-71
2023/06/15 07:22:17;;;;;;;12.40;10.60;;;;;;;14.32;73.31;97292.93;108805;1251;94279;-72
2023/06/15 07:24:44;;;;;;;14.20;11.70;;;;;;;14.36;73.31;97292.39;108777;1253;94231;-72
2023/06/15 07:27:11;;;;;;;11.40;9.50;;;;;;;14.48;73.03;97299.45;108638;1254;94311;-72
2023/06/15 07:29:38;;;;;;;12.20;9.70;;;;;;;14.59;72.55;97300.89;108954;1250;94558;-72
2023/06/15 07:32:05;;;;;;;10.20;8.90;;;;;;;14.67;72.18;97301.00;108863;1251;101429;-71
2023/06/15 07:34:31;;;;;;;9.40;8.40;;;;;;;14.71;71.92;97297.13;108836;1250;94329;-72
2023/06/15 07:36:58;;;;;;;11.30;8.90;;;;;;;14.77;71.77;97295.67;108817;1250;94231;-72
2023/06/15 07:39:25;;;;;;;9.70;8.70;;;;;;;14.89;71.43;97291.66;108829;1252;94318;-72
2023/06/15 07:41:52;;;;;;;10.30;8.90;;;;;;;15.02;71.24;97295.63;108849;1251;94256;-72
2023/06/15 07:44:19;;;;;;;10.60;9.50;;;;;;;15.14;71.00;97295.09;108942;1250;94270;-72
2023/06/15 07:46:45;;;;;;;10.30;8.30;;;;;;;15.27;70.94;97294.86;108804;1255;94177;-71
2023/06/15 07:49:12;;;;;;;10.40;9.40;;;;;;;15.39;70.48;97294.77;108862;1250;94312;-72
2023/06/15 07:51:39;;;;;;;11.50;9.60;;;;;;;15.47;69.97;97298.58;108820;1253;94239;-72
2023/06/15 07:54:06;;;;;;;13.50;8.70;;;;;;;15.51;69.55;97298.33;108904;1251;94375;-71
2023/06/15 07:56:33;;;;;;;10.20;9.10;;;;;;;15.50;69.13;97301.14;108773;1251;94525;-72
2023/06/15 07:58:59;;;;;;;10.30;9.10;;;;;;;15.52;69.20;97296.51;108925;1250;94694;-71
2023/06/15 08:01:26;;;;;;;10.50;9.10;;;;;;;15.57;69.66;97293.95;108671;1250;102214;-73
2023/06/15 08:03:53;;;;;;;10.60;9.40;;;;;;;15.60;69.25;97293.61;108669;1251;95349;-71
2023/06/15 08:06:20;;;;;;;11.30;9.70;;;;;;;15.76;69.50;97291.02;108769;1251;94222;-73
2023/06/15 08:08:47;;;;;;;13.20;11.50;;;;;;;16.03;68.96;97289.04;108838;1251;94295;-72
2023/06/15 08:11:16;;;;;;;13.10;9.30;;;;;;;16.20;68.71;97292.46;108996;1250;94227;-73
2023/06/15 08:13:46;;;;;;;12.20;9.60;;;;;;;16.34;68.13;97289.11;108779;1253;110002;-72
2023/06/15 08:16:13;;;;;;;11.80;9.70;;;;;;;16.52;67.84;97289.45;108771;1252;100073;-71
2023/06/15 08:18:40;;;;;;;12.00;9.70;;;;;;;16.77;67.50;97291.83;108852;1251;94313;-71
2023/06/15 08:21:06;;;;;;;10.30;8.90;;;;;;;17.12;67.53;97292.83;108862;1252;94257;-71
2023/06/15 08:23:33;;;;;;;11.90;9.00;;;;;;;17.58;66.95;97294.68;108542;1250;94600;-72
2023/06/15 08:26:00;;;;;;;9.20;7.80;;;;;;;17.97;66.47;97292.59;108569;1251;94754;-72
2023/06/15 08:28:27;;;;;;;9.20;7.70;;;;;;;18.48;66.34;97291.91;108783;1252;94183;-73
2023/06/15 08:30:53;;;;;;;8.70;7.80;;;;;;;18.88;65.31;97292.52;108845;1253;94318;-72
2023/06/15 08:33:20;;;;;;;8.90;8.00;;;;;;;19.27;64.60;97292.65;108575;1250;94520;-72
2023/06/15 08:35:47;;;;;;;10.10;9.00;;;;;;;19.80;64.31;97295.23;108487;1251;94563;-72
2023/06/15 08:38:14;;;;;;;13.90;8.00;;;;;;;20.30;63.16;97288.16;108546;1251;94504;-74
2023/06/15 08:40:41;;;;;;;8.70;7.80;;;;;;;20.76;62.48;97288.08;108866;1253;94281;-72
2023/06/15 08:43:10;;;;;;;8.30;7.40;;;;;;;21.21;61.39;97283.02;108813;1253;102001;-74
2023/06/15 08:45:42;;;;;;;8.00;6.80;;;;;;;21.66;60.70;97280.58;108546;1253;101161;-72
2023/06/15 08:48:11;;;;;;;7.90;7.20;;;;;;;22.12;60.16;97274.84;108795;1252;100086;-73
2023/06/15 08:50:39;;;;;;;8.70;6.90;;;;;;;22.57;59.08;97272.83;108791;1251;94631;-75
2023/06/15 08:53:08;;;;;;;8.30;7.50;;;;;;;23.00;57.68;97275.05;108794;1254;94230;-72
2023/06/15 08:55:35;;;;;;;6.80;6.10;;;;;;;23.36;56.94;97274.58;108798;1253;103797;-72
2023/06/15 08:58:05;;;;;;;7.80;7.00;;;;;;;23.59;56.06;97273.67;108800;1254;101044;-73
2023/06/15 09:00:32;;;;;;;8.30;6.90;;;;;;;23.72;54.76;97269.23;108814;1251;100037;-73
2023/06/15 09:03:03;;;;;;;7.30;6.70;;;;;;;24.11;54.42;97267.28;108836;1250;95557;-73
2023/06/15 09:05:30;;;;;;;7.50;6.50;;;;;;;24.55;53.59;97261.34;108581;1254;95597;-75
2023/06/15 09:07:58;;;;;;;7.40;6.60;;;;;;;24.95;53.04;97259.48;108668;1253;95729;-73
2023/06/15 09:10:26;;;;;;;7.60;6.80;;;;;;;25.24;52.49;97257.09;108813;1251;101127;-76
2023/06/15 09:12:58;;;;;;;7.60;6.40;;;;;;;25.40;51.46;97255.26;108504;1251;100087;-72
2023/06/15 09:15:27;;;;;;;7.00;6.30;;;;;;;25.62;50.98;97254.61;108829;1251;95573;-70
2023/06/15 09:18:01;;;;;;;7.70;6.90;;;;;;;25.92;50.09;97256.27;108884;1251;96691;-71
2023/06/15 09:20:32;;;;;;;8.40;6.10;;;;;;;26.04;49.36;97256.59;108830;1252;103221;-72
2023/06/15 09:23:00;;;;;;;6.90;6.20;;;;;;;26.23;49.23;97254.08;108456;1254;109919;-71
2023/06/15 09:25:30;;;;;;;7.30;6.10;;;;;;;26.42;49.19;97250.61;108793;1252;99797;-70
2023/06/15 09:28:02;;;;;;;6.70;5.40;;;;;;;26.62;48.45;97251.90;108813;1251;95525;-72
2023/06/15 09:30:38;;;;;;;6.00;5.50;;;;;;;26.85;47.89;97249.75;108904;1252;96536;-71
2023/06/15 09:33:15;;;;;;;6.50;4.80;;;;;;;26.92;46.71;97244.36;108758;1252;112531;-71
2023/06/15 09:36:02;;;;;;;6.30;4.90;;;;;;;27.03;46.41;97242.52;108855;1251;101536;-74
2023/06/15 09:38:31;;;;;;;4.80;4.30;;;;;;;27.11;45.66;97243.10;108797;1252;99832;-70
2023/06/15 09:41:05;;;;;;;7.20;5.80;;;;;;;27.27;44.76;97244.31;108823;1251;95885;-70
2023/06/15 09:43:34;;;;;;;6.10;5.40;;;;;;;27.38;44.58;97239.25;108844;1251;95659;-71
2023/06/15 09:46:05;;;;;;;6.70;5.30;;;;;;;27.46;44.57;97236.45;108808;1254;103312;-72
2023/06/15 09:48:31;;;;;;;5.50;5.00;;;;;;;27.60;44.47;97237.37;108772;1253;101311;-74
2023/06/15 09:51:02;;;;;;;6.80;6.10;;;;;;;27.62;43.75;97231.28;108621;1254;95765;-71
2023/06/15 09:53:31;;;;;;;5.60;4.90;;;;;;;27.68;43.13;97226.80;108808;1256;95702;-71
2023/06/15 09:55:59;;;;;;;5.30;4.80;;;;;;;27.64;42.98;97222.17;108885;1251;95583;-71
2023/06/15 09:58:27;;;;;;;5.90;5.40;;;;;;;27.64;42.61;97219.85;108680;1251;103545;-73
2023/06/15 10:00:57;;;;;;;6.20;5.00;;;;;;;27.69;42.32;97218.77;108899;1251;95625;-71
2023/06/15 10:03:31;;;;;;;5.30;4.80;;;;;;;27.62;42.46;97215.29;108500;1254;100110;-71
2023/06/15 10:06:11;;;;;;;5.40;4.90;;;;;;;27.69;41.86;97216.20;108843;1251;96104;-71
2023/06/15 10:08:41;;;;;;;6.50;5.20;;;;;;;27.70;41.47;97213.04;108861;1250;95923;-71
2023/06/15 10:11:12;;;;;;;5.00;4.60;;;;;;;27.64;41.39;97213.30;108554;1251;102249;-74
2023/06/15 10:13:48;;;;;;;5.30;4.80;;;;;;;27.48;40.93;97210.50;108842;1253;101297;-73
2023/06/15 10:16:16;;;;;;;6.70;5.40;;;;;;;27.28;41.03;97208.91;108799;1251;100138;-71
2023/06/15 10:18:46;;;;;;;6.30;4.20;;;;;;;27.31;41.33;97209.10;108824;1251;95551;-73
2023/06/15 10:21:18;;;;;;;6.70;5.00;;;;;;;27.29;41.10;97206.78;108866;1250;95769;-70
2023/06/15 10:23:49;;;;;;;5.70;5.10;;;;;;;27.36;40.58;97207.15;108782;1251;103765;-73
2023/06/15 10:26:16;;;;;;;6.00;4.60;;;;;;;27.48;40.13;97211.20;108865;1251;101550;-71
2023/06/15 10:28:47;;;;;;;5.00;4.40;;;;;;;27.52;39.70;97210.27;108520;1254;96094;-73
2023/06/15 10:31:30;;;;;;;5.70;5.10;;;;;;;27.31;39.45;97203.81;108763;1253;95680;-73
2023/06/15 10:34:09;;;;;;;5.20;4.70;;;;;;;27.20;39.44;97204.56;108669;1252;95755;-71
2023/06/15 10:36:55;;;;;;;5.90;4.60;;;;;;;27.43;39.63;97201.62;108528;1253;103537;-71
2023/06/15 10:39:28;;;;;;;7.00;5.20;;;;;;;27.68;39.09;97200.73;108870;1250;101175;-75
2023/06/15 10:41:58;;;;;;;7.80;5.70;;;;;;;27.86;38.98;97200.43;108821;1251;99966;-71
2023/06/15 10:44:32;;;;;;;6.00;5.30;;;;;;;27.98;39.28;97199.15;108816;1251;95639;-71
2023/06/15 10:47:12;;;;;;;5.60;5.10;;;;;;;28.07;39.02;97197.63;108788;1253;96006;-71
2023/06/15 10:49:49;;;;;;;4.70;4.30;;;;;;;28.12;38.69;97195.50;108584;1253;103561;-71
2023/06/15 10:52:16;;;;;;;6.00;5.00;;;;;;;28.23;37.67;97194.70;108785;1254;101089;-74
2023/06/15 10:54:44;;;;;;;4.90;4.40;;;;;;;28.36;37.15;97185.86;108812;1254;96019;-74
2023/06/15 10:57:26;;;;;;;7.00;5.00;;;;;;;28.50;37.34;97183.36;108742;1251;95703;-74
2023/06/15 10:59:54;;;;;;;4.90;4.50;;;;;;;28.49;37.62;97179.31;108811;1252;96502;-71
2023/06/15 11:02:27;;;;;;;5.60;4.30;;;;;;;28.49;37.44;97178.20;108657;1257;103811;-73
2023/06/15 11:05:03;;;;;;;6.00;5.10;;;;;;;28.63;36.89;97179.84;108471;1252;101230;-71
2023/06/15 11:07:35;;;;;;;5.00;4.50;;;;;;;28.75;36.34;97176.55;108747;1254;100107;-71
2023/06/15 11:10:11;;;;;;;;;;;;;;;28.80;35.89;97171.52;108816;1251;95725;-74
2023/06/15 11:12:39;;;;;;;4.60;4.20;;;;;;;28.86;35.60;97169.30;108891;1251;96581;-72
2023/06/15 11:15:09;;;;;;;5.40;4.80;;;;;;;28.90;36.06;97171.23;108857;1252;103509;-71
2023/06/15 11:18:05;;;;;;;5.50;4.70;;;;;;;28.81;36.42;97172.02;108834;1251;101356;-72
2023/06/15 11:20:38;;;;;;;5.40;4.90;;;;;;;28.50;36.52;97167.95;108510;1253;99152;-71
2023/06/15 11:23:18;;;;;;;4.90;4.50;;;;;;;28.21;36.37;97169.27;108793;1254;95580;-71
2023/06/15 11:25:46;;;;;;;6.50;4.80;;;;;;;28.21;36.42;97165.92;108864;1250;95594;-71
2023/06/15 11:28:22;;;;;;;5.40;4.60;;;;;;;28.17;36.00;97166.70;108810;1252;103568;-71